Gowanda, New York
Current Conditions -  °F | °C
As of 1:53 PM on Friday 28 Nov 2014 (Local Time) from KDKK Reporting Station
Light Snow Light Snow  
Wind Chill: 18°   Ceiling: 2700
Heat Index: 26°   Visibility: 8mi
Dew Point: 18°   Wind: 7mph
Humidity: 71%   Direction: 230°SW
Pressure: 30.23"   Gusts: NA
Location:  42.46°N, 78.94°W
Report Text: KDKK 281853Z AUTO 23006KT 8SM -SN BKN027 OVC037 M03/M08 A3023 RMK AO2 SNB38 SLP247 P0000 T10331078
Loading
Personal Weather Stations






























Interactive Weather Map New forecast layout! Learn more

10-Day Weather Forecast

Advertisements
Track Severe Weather on mobile